createdAt,value
2017-08-16T00:01:17.733Z,16.10
2017-08-16T00:03:43.765Z,14.27
2017-08-16T00:06:09.805Z,13.73
2017-08-16T00:08:35.825Z,17.43
2017-08-16T00:11:02.616Z,15.57
2017-08-16T00:13:28.628Z,12.77
2017-08-16T00:15:54.668Z,13.00
2017-08-16T00:18:20.685Z,16.43
2017-08-16T00:20:47.461Z,12.40
2017-08-16T00:23:13.480Z,12.20
2017-08-16T00:25:39.498Z,17.10
2017-08-16T00:28:05.518Z,13.20
2017-08-16T00:30:31.544Z,11.80
2017-08-16T00:32:58.316Z,10.73
2017-08-16T00:35:24.350Z,11.10
2017-08-16T00:37:50.359Z,10.73
2017-08-16T00:40:16.377Z,13.60
2017-08-16T00:42:42.401Z,15.63
2017-08-16T00:45:08.420Z,14.23
2017-08-16T00:47:34.449Z,13.90
2017-08-16T00:50:00.468Z,14.50
2017-08-16T00:52:26.513Z,14.27
2017-08-16T00:54:52.557Z,18.90
2017-08-16T00:57:19.297Z,17.83
2017-08-16T00:59:45.317Z,18.47
2017-08-16T01:02:11.329Z,23.20
2017-08-16T01:04:37.358Z,24.37
2017-08-16T01:07:03.408Z,19.40
2017-08-16T01:09:29.481Z,23.10
2017-08-16T01:11:55.848Z,19.63
2017-08-16T01:14:22.613Z,27.23
2017-08-16T01:16:48.625Z,19.90
2017-08-16T01:19:14.648Z,23.60
2017-08-16T01:21:40.664Z,22.50
2017-08-16T01:24:06.677Z,22.60
2017-08-16T01:26:32.705Z,24.03
2017-08-16T01:28:59.465Z,22.10
2017-08-16T01:31:25.485Z,25.00
2017-08-16T01:33:51.492Z,29.20
2017-08-16T01:36:17.529Z,23.00
2017-08-16T01:38:43.537Z,25.90
2017-08-16T01:41:09.561Z,29.57
2017-08-16T01:43:35.584Z,28.73
2017-08-16T01:46:02.357Z,31.27
2017-08-16T01:48:28.368Z,28.60
2017-08-16T01:50:54.398Z,31.70
2017-08-16T01:53:21.176Z,29.33
2017-08-16T01:55:47.181Z,30.63
2017-08-16T01:58:13.185Z,29.70
2017-08-16T02:00:39.205Z,31.03
2017-08-16T02:03:05.225Z,35.43
2017-08-16T02:05:31.237Z,32.33
2017-08-16T02:07:57.257Z,29.63
2017-08-16T02:10:23.280Z,25.80
2017-08-16T02:12:49.304Z,25.43
2017-08-16T02:15:15.306Z,21.80
2017-08-16T02:17:41.339Z,31.63
2017-08-16T02:20:08.089Z,26.90
2017-08-16T02:22:34.120Z,28.43
2017-08-16T02:25:00.136Z,29.00
2017-08-16T02:27:26.192Z,26.10
2017-08-16T02:29:52.997Z,32.53
2017-08-16T02:32:19.019Z,25.27
2017-08-16T02:34:45.035Z,28.33
2017-08-16T02:37:11.050Z,30.13
2017-08-16T02:39:37.116Z,39.13
2017-08-16T02:42:03.126Z,33.50
2017-08-16T02:44:29.241Z,36.83
2017-08-16T02:46:55.262Z,33.87
2017-08-16T02:49:21.287Z,44.53
2017-08-16T02:51:48.041Z,44.83
2017-08-16T02:54:14.211Z,45.63
2017-08-16T02:56:40.976Z,56.37
2017-08-16T02:59:06.989Z,42.70
2017-08-16T03:01:33.008Z,42.90
2017-08-16T03:03:59.013Z,48.40
2017-08-16T03:06:25.032Z,39.90
2017-08-16T03:08:51.037Z,40.70
2017-08-16T03:11:17.061Z,43.63
2017-08-16T03:13:43.077Z,42.73
2017-08-16T03:16:09.089Z,41.10
2017-08-16T03:18:35.097Z,41.10
2017-08-16T03:21:01.121Z,44.73
2017-08-16T03:23:27.140Z,47.50
2017-08-16T03:25:53.910Z,66.97
2017-08-16T03:28:19.944Z,70.10
2017-08-16T03:30:45.969Z,92.60
2017-08-16T03:33:12.729Z,88.63
2017-08-16T03:35:38.726Z,78.03
2017-08-16T03:38:04.736Z,103.43
2017-08-16T03:40:30.749Z,104.03
2017-08-16T03:42:56.761Z,109.80
2017-08-16T03:45:22.774Z,143.20
2017-08-16T03:47:48.792Z,156.60
2017-08-16T03:50:14.796Z,134.83
2017-08-16T03:52:40.816Z,156.70
2017-08-16T03:55:06.825Z,152.63
2017-08-16T03:57:32.845Z,175.30
2017-08-16T03:59:58.889Z,174.93
2017-08-16T04:02:24.919Z,168.17
2017-08-16T04:04:50.945Z,180.50
2017-08-16T04:07:16.974Z,184.50
2017-08-16T04:09:42.992Z,188.33
2017-08-16T04:12:09.005Z,193.07
2017-08-16T04:14:35.036Z,194.83
2017-08-16T04:17:01.073Z,198.03
2017-08-16T04:19:27.094Z,199.87
2017-08-16T04:21:53.108Z,207.80
2017-08-16T04:24:19.136Z,193.37
2017-08-16T04:26:45.148Z,201.77
2017-08-16T04:29:11.172Z,209.93
2017-08-16T04:31:37.184Z,203.07
2017-08-16T04:34:03.218Z,190.43
2017-08-16T04:36:29.237Z,195.73
2017-08-16T04:38:55.253Z,201.27
2017-08-16T04:41:21.289Z,205.07
2017-08-16T04:43:47.296Z,196.67
2017-08-16T04:46:13.316Z,184.70
2017-08-16T04:48:39.332Z,191.67
2017-08-16T04:51:05.365Z,175.07
2017-08-16T04:53:31.388Z,181.50
2017-08-16T04:55:57.437Z,170.67
2017-08-16T04:58:23.444Z,165.13
2017-08-16T05:00:49.468Z,142.83
2017-08-16T05:03:15.485Z,145.37
2017-08-16T05:05:41.513Z,162.27
2017-08-16T05:08:07.529Z,146.57
2017-08-16T05:10:34.284Z,147.73
2017-08-16T05:13:00.342Z,136.30
2017-08-16T05:15:26.362Z,142.50
2017-08-16T05:17:53.125Z,144.83
2017-08-16T05:20:19.142Z,132.23
2017-08-16T05:22:45.175Z,149.37
2017-08-16T05:25:11.192Z,157.73
2017-08-16T05:27:37.217Z,122.70
2017-08-16T05:30:03.978Z,120.67
2017-08-16T05:32:30.028Z,127.73
2017-08-16T05:34:56.049Z,142.00
2017-08-16T05:37:22.081Z,139.13
2017-08-16T05:39:48.861Z,134.70
2017-08-16T05:42:14.897Z,146.27
2017-08-16T05:44:40.916Z,135.00
2017-08-16T05:47:07.694Z,130.97
2017-08-16T05:49:33.761Z,146.53
2017-08-16T05:52:00.528Z,145.03
2017-08-16T05:54:26.573Z,143.83
2017-08-16T05:56:52.588Z,108.67
2017-08-16T05:59:18.598Z,121.37
2017-08-16T06:01:45.362Z,122.57
2017-08-16T06:04:11.406Z,114.00
2017-08-16T06:06:37.445Z,123.03
2017-08-16T06:09:03.466Z,104.50
2017-08-16T06:11:30.216Z,107.50
2017-08-16T06:13:56.228Z,102.20
2017-08-16T06:16:22.265Z,97.80
2017-08-16T06:18:48.292Z,103.23
2017-08-16T06:21:14.318Z,83.53
2017-08-16T06:23:40.349Z,94.00
2017-08-16T06:26:06.364Z,83.27
2017-08-16T06:28:32.371Z,82.50
2017-08-16T06:30:58.411Z,76.47
2017-08-16T06:33:24.434Z,76.30
2017-08-16T06:35:50.467Z,68.83
2017-08-16T06:38:17.237Z,61.47
2017-08-16T06:40:43.262Z,61.57
2017-08-16T06:43:16.317Z,62.97
2017-08-16T06:45:42.334Z,69.57
2017-08-16T06:48:08.360Z,54.90
2017-08-16T06:50:34.379Z,61.20
2017-08-16T06:53:00.409Z,59.27
2017-08-16T06:55:26.445Z,63.83
2017-08-16T06:57:52.492Z,64.90
2017-08-16T07:00:18.509Z,51.90
2017-08-16T07:02:44.569Z,51.93
2017-08-16T07:05:10.591Z,48.53
2017-08-16T07:07:36.604Z,53.40
2017-08-16T07:10:02.637Z,58.10
2017-08-16T07:12:28.661Z,51.43
2017-08-16T07:14:54.698Z,35.20
2017-08-16T07:17:20.709Z,38.60
2017-08-16T07:19:46.733Z,41.97
2017-08-16T07:22:12.758Z,40.23
2017-08-16T07:24:38.795Z,42.40
2017-08-16T07:27:04.817Z,37.13
2017-08-16T07:29:30.858Z,34.10
2017-08-16T07:31:56.881Z,32.97
2017-08-16T07:34:22.903Z,37.43
2017-08-16T07:36:48.916Z,30.30
2017-08-16T07:39:14.917Z,29.00
2017-08-16T07:41:40.940Z,24.00
2017-08-16T07:44:06.960Z,23.90
2017-08-16T07:46:32.990Z,26.63
2017-08-16T07:48:59.011Z,20.43
2017-08-16T07:51:25.033Z,24.23
2017-08-16T07:53:51.106Z,18.53
2017-08-16T07:56:17.156Z,23.20
2017-08-16T07:58:43.165Z,24.10
2017-08-16T08:01:09.184Z,17.43
2017-08-16T08:03:35.244Z,26.70
2017-08-16T08:06:02.008Z,17.50
2017-08-16T08:08:28.024Z,18.00
2017-08-16T08:10:54.041Z,18.27
2017-08-16T08:13:20.065Z,18.37
2017-08-16T08:15:46.081Z,19.93
2017-08-16T08:18:12.129Z,15.77
2017-08-16T08:20:38.869Z,18.73
2017-08-16T08:23:04.884Z,13.70
2017-08-16T08:25:30.896Z,20.07
2017-08-16T08:27:56.937Z,18.53
2017-08-16T08:30:22.944Z,20.33
2017-08-16T08:32:49.003Z,20.90
2017-08-16T08:35:15.026Z,17.03
2017-08-16T08:37:41.050Z,12.37
2017-08-16T08:40:07.076Z,15.00
2017-08-16T08:42:33.096Z,12.80
2017-08-16T08:44:59.130Z,16.17
2017-08-16T08:47:25.174Z,21.33
2017-08-16T08:49:51.226Z,14.80
2017-08-16T08:52:17.249Z,12.73
2017-08-16T08:54:43.281Z,13.07
2017-08-16T08:57:09.304Z,16.10
2017-08-16T08:59:35.336Z,12.87
2017-08-16T09:02:01.364Z,13.83
2017-08-16T09:04:27.410Z,11.40
2017-08-16T09:06:53.431Z,12.30
2017-08-16T09:09:19.440Z,13.77
2017-08-16T09:11:45.461Z,14.43
2017-08-16T09:14:11.470Z,16.57
2017-08-16T09:16:37.507Z,12.17
2017-08-16T09:19:03.536Z,17.10
2017-08-16T09:21:29.573Z,16.93
2017-08-16T09:23:55.594Z,16.40
2017-08-16T09:26:21.615Z,16.50
2017-08-16T09:28:47.625Z,11.60
2017-08-16T09:31:13.647Z,12.93
2017-08-16T09:33:54.628Z,13.20
2017-08-16T09:36:20.663Z,10.37
2017-08-16T09:38:46.664Z,9.77
2017-08-16T09:41:13.432Z,10.57
2017-08-16T09:43:39.489Z,8.47
2017-08-16T09:46:05.504Z,11.17
2017-08-16T09:48:32.281Z,6.77
2017-08-16T09:50:58.304Z,12.73
2017-08-16T09:53:24.339Z,8.83
2017-08-16T09:55:50.345Z,4.97
2017-08-16T09:58:16.377Z,8.63
2017-08-16T10:00:43.164Z,7.50
2017-08-16T10:03:09.197Z,5.80
2017-08-16T10:05:35.221Z,4.70
2017-08-16T10:08:01.237Z,3.90
2017-08-16T10:10:27.269Z,5.20
2017-08-16T10:12:53.313Z,9.13
2017-08-16T10:15:19.344Z,6.80
2017-08-16T10:17:46.109Z,3.07
2017-08-16T10:20:12.176Z,9.60
2017-08-16T10:22:38.992Z,4.83
2017-08-16T10:25:05.028Z,5.80
2017-08-16T10:27:31.042Z,4.10
2017-08-16T10:29:57.065Z,10.37
2017-08-16T10:32:23.097Z,5.07
2017-08-16T10:34:49.113Z,7.30
2017-08-16T10:37:30.101Z,5.63
2017-08-16T10:39:56.109Z,6.47
2017-08-16T10:42:22.872Z,4.10
2017-08-16T10:44:48.901Z,5.83
2017-08-16T10:47:14.937Z,8.03
2017-08-16T10:49:41.711Z,7.90
2017-08-16T10:52:07.756Z,5.57
2017-08-16T10:54:33.793Z,9.17
2017-08-16T10:56:59.804Z,4.40
2017-08-16T10:59:26.596Z,6.20
2017-08-16T11:01:52.600Z,8.90
2017-08-16T11:04:18.625Z,3.53
2017-08-16T11:06:44.637Z,6.80
2017-08-16T11:09:10.666Z,3.47
2017-08-16T11:11:37.441Z,4.40
2017-08-16T11:14:03.464Z,3.17
2017-08-16T11:16:29.477Z,2.50
2017-08-16T11:18:55.508Z,2.90
2017-08-16T11:21:21.520Z,3.67
2017-08-16T11:23:48.301Z,6.50
2017-08-16T11:26:14.337Z,2.73
2017-08-16T11:28:40.345Z,2.20
2017-08-16T11:31:06.372Z,3.70
2017-08-16T11:33:32.388Z,3.60
2017-08-16T11:35:58.412Z,6.73
2017-08-16T11:38:24.425Z,5.00
2017-08-16T11:40:50.436Z,5.07
2017-08-16T11:43:16.449Z,6.43
2017-08-16T11:45:42.480Z,5.67
2017-08-16T11:48:08.500Z,3.23
2017-08-16T11:50:34.532Z,7.27
2017-08-16T11:53:00.553Z,5.10
2017-08-16T11:55:27.322Z,3.63
2017-08-16T11:57:53.347Z,5.07
2017-08-16T12:00:19.367Z,3.40
2017-08-16T12:02:45.385Z,1.70
2017-08-16T12:05:11.408Z,2.50
2017-08-16T12:07:38.166Z,4.07
2017-08-16T12:10:04.200Z,9.93
2017-08-16T12:12:30.217Z,5.33
2017-08-16T12:14:56.245Z,4.93
2017-08-16T12:17:22.279Z,3.43
2017-08-16T12:19:48.293Z,2.90
2017-08-16T12:22:14.334Z,4.73
2017-08-16T12:24:55.345Z,3.77
2017-08-16T12:27:22.108Z,2.93
2017-08-16T12:29:48.117Z,4.10
2017-08-16T12:32:14.129Z,3.20
2017-08-16T12:34:40.332Z,1.60
2017-08-16T12:37:06.361Z,1.63
2017-08-16T12:39:32.360Z,4.23
2017-08-16T12:41:58.380Z,5.30
2017-08-16T12:44:24.401Z,5.13
2017-08-16T12:46:50.445Z,5.03
2017-08-16T12:49:17.202Z,3.73
2017-08-16T12:51:43.231Z,2.20
2017-08-16T12:54:09.289Z,4.13
2017-08-16T12:56:35.331Z,2.30
2017-08-16T12:59:01.355Z,3.63
2017-08-16T13:01:27.365Z,3.13
2017-08-16T13:03:53.372Z,5.73
2017-08-16T13:06:19.404Z,3.20
2017-08-16T13:08:45.441Z,2.80
2017-08-16T13:11:11.471Z,1.60
2017-08-16T13:13:37.495Z,2.77
2017-08-16T13:16:03.501Z,1.37
2017-08-16T13:18:29.525Z,7.60
2017-08-16T13:20:55.545Z,7.70
2017-08-16T13:23:21.572Z,1.90
2017-08-16T13:25:48.350Z,5.90
2017-08-16T13:28:14.369Z,3.40
2017-08-16T13:30:40.389Z,1.67
2017-08-16T13:33:06.416Z,1.73
2017-08-16T13:35:32.424Z,1.13
2017-08-16T13:37:58.444Z,2.60
2017-08-16T13:40:25.229Z,1.37
2017-08-16T13:42:51.360Z,5.23
2017-08-16T13:45:17.408Z,1.73
2017-08-16T13:47:44.169Z,1.53
2017-08-16T13:50:10.201Z,3.47
2017-08-16T13:52:36.249Z,2.87
2017-08-16T13:55:02.364Z,1.30
2017-08-16T13:57:28.374Z,2.80
2017-08-16T13:59:54.392Z,1.33
2017-08-16T14:02:20.408Z,1.77
2017-08-16T14:04:46.425Z,2.63
2017-08-16T14:07:12.477Z,3.83
2017-08-16T14:09:39.719Z,3.03
2017-08-16T14:12:05.757Z,1.00
2017-08-16T14:14:31.808Z,2.40
2017-08-16T14:16:57.829Z,1.23
2017-08-16T14:19:23.848Z,2.87
2017-08-16T14:21:49.892Z,2.37
2017-08-16T14:24:15.914Z,1.30
2017-08-16T14:26:41.928Z,1.67
2017-08-16T14:29:07.960Z,2.30
2017-08-16T14:31:34.035Z,1.37
2017-08-16T14:34:00.062Z,1.13
2017-08-16T14:36:27.218Z,3.47
2017-08-16T14:38:53.324Z,4.43
2017-08-16T14:41:19.333Z,2.20
2017-08-16T14:43:45.613Z,1.43
2017-08-16T14:46:11.622Z,1.73
2017-08-16T14:48:37.650Z,2.60
2017-08-16T14:51:03.716Z,3.50
2017-08-16T14:53:30.489Z,2.77
2017-08-16T14:55:56.515Z,10.23
2017-08-16T14:58:22.532Z,1.33
2017-08-16T15:00:48.581Z,1.40
2017-08-16T15:03:14.602Z,3.27
2017-08-16T15:05:40.650Z,1.53
2017-08-16T15:08:06.668Z,2.00
2017-08-16T15:10:32.701Z,2.00
2017-08-16T15:12:58.723Z,2.83
2017-08-16T15:15:24.744Z,2.83
2017-08-16T15:17:50.760Z,1.37
2017-08-16T15:20:16.793Z,1.40
2017-08-16T15:22:42.836Z,1.03
2017-08-16T15:25:08.882Z,3.80
2017-08-16T15:27:34.896Z,1.83
2017-08-16T15:30:00.917Z,2.60
2017-08-16T15:32:26.928Z,4.33
2017-08-16T15:34:53.510Z,1.33
2017-08-16T15:37:19.613Z,3.60
2017-08-16T15:39:46.460Z,4.00
2017-08-16T15:42:12.480Z,3.80
2017-08-16T15:44:38.524Z,4.47
2017-08-16T15:47:19.501Z,1.20
2017-08-16T15:49:46.264Z,3.60
2017-08-16T15:52:12.273Z,5.03
2017-08-16T15:54:38.308Z,1.40
2017-08-16T15:57:04.320Z,2.00
2017-08-16T15:59:30.336Z,1.87
2017-08-16T16:01:56.340Z,3.40
2017-08-16T16:04:22.364Z,1.40
2017-08-16T16:06:48.384Z,0.90
2017-08-16T16:09:15.149Z,2.87
2017-08-16T16:11:56.168Z,6.10
2017-08-16T16:14:22.944Z,2.43
2017-08-16T16:16:48.977Z,2.83
2017-08-16T16:19:15.008Z,2.97
2017-08-16T16:21:41.085Z,2.30
2017-08-16T16:24:07.132Z,5.43
2017-08-16T16:26:33.165Z,5.50
2017-08-16T16:28:59.188Z,1.33
2017-08-16T16:31:25.257Z,2.20
2017-08-16T16:33:52.014Z,3.10
2017-08-16T16:36:18.025Z,1.83
2017-08-16T16:38:44.062Z,2.87
2017-08-16T16:41:10.073Z,5.20
2017-08-16T16:43:36.143Z,4.70
2017-08-16T16:46:02.189Z,2.80
2017-08-16T16:48:28.258Z,2.30
2017-08-16T16:53:32.840Z,4.47
2017-08-16T16:55:59.608Z,2.10
2017-08-16T16:58:25.652Z,1.70
2017-08-16T17:00:51.676Z,16.57
2017-08-16T17:03:17.704Z,1.73
2017-08-16T17:05:43.724Z,1.77
2017-08-16T17:08:09.744Z,1.63
2017-08-16T17:10:35.785Z,1.90
2017-08-16T17:13:01.812Z,3.87
2017-08-16T17:15:27.846Z,3.60
2017-08-16T17:17:54.598Z,3.23
2017-08-16T17:20:20.639Z,2.40
2017-08-16T17:22:46.677Z,5.23
2017-08-16T17:25:12.707Z,3.97
2017-08-16T17:27:38.781Z,3.87
2017-08-16T17:30:04.813Z,4.20
2017-08-16T17:32:31.604Z,3.23
2017-08-16T17:34:57.612Z,2.70
2017-08-16T17:37:23.640Z,2.70
2017-08-16T17:39:49.657Z,4.53
2017-08-16T17:42:15.687Z,7.73
2017-08-16T17:44:41.725Z,4.70
2017-08-16T17:47:07.751Z,3.27
2017-08-16T17:49:40.633Z,6.60
2017-08-16T17:52:07.405Z,6.60
2017-08-16T17:54:33.445Z,3.60
2017-08-16T17:56:59.467Z,3.37
2017-08-16T17:59:25.501Z,5.03
2017-08-16T18:01:51.509Z,3.87
2017-08-16T18:04:17.541Z,3.63
2017-08-16T18:06:43.557Z,3.33
2017-08-16T18:09:09.613Z,4.53
2017-08-16T18:11:36.794Z,3.63
2017-08-16T18:14:03.047Z,3.40
2017-08-16T18:16:29.080Z,4.87
2017-08-16T18:18:55.093Z,3.00
2017-08-16T18:21:21.113Z,3.20
2017-08-16T18:23:47.872Z,2.40
2017-08-16T18:26:13.880Z,2.90
2017-08-16T18:28:39.920Z,4.57
2017-08-16T18:31:05.928Z,4.00
2017-08-16T18:33:31.952Z,5.00
2017-08-16T18:35:57.977Z,3.07
2017-08-16T18:38:24.000Z,3.90
2017-08-16T18:40:50.760Z,5.60
2017-08-16T18:43:16.785Z,6.60
2017-08-16T18:45:42.808Z,4.33
2017-08-16T18:48:08.950Z,4.70
2017-08-16T18:50:34.978Z,11.70
2017-08-16T18:53:01.000Z,3.57
2017-08-16T18:55:27.047Z,3.30
2017-08-16T18:57:53.060Z,4.80
2017-08-16T19:00:19.077Z,4.60
2017-08-16T19:02:46.586Z,5.63
2017-08-16T19:05:12.737Z,6.90
2017-08-16T19:07:38.751Z,4.33
2017-08-16T19:10:04.765Z,10.93
2017-08-16T19:12:30.792Z,3.30
2017-08-16T19:14:56.825Z,6.57
2017-08-16T19:17:22.862Z,5.23
2017-08-16T19:19:48.901Z,5.57
2017-08-16T19:22:14.923Z,6.67
2017-08-16T19:24:40.960Z,11.27
2017-08-16T19:27:06.985Z,4.83
2017-08-16T19:29:32.997Z,4.77
2017-08-16T19:31:59.138Z,4.93
2017-08-16T19:34:25.891Z,6.60
2017-08-16T19:36:51.964Z,8.50
2017-08-16T19:39:17.982Z,5.30
2017-08-16T19:41:44.146Z,6.50
2017-08-16T19:44:10.156Z,4.20
2017-08-16T19:46:36.193Z,4.83
2017-08-16T19:49:02.242Z,6.10
2017-08-16T19:51:28.256Z,5.73
2017-08-16T19:53:54.277Z,8.53
2017-08-16T19:56:20.288Z,8.20
2017-08-16T19:58:46.309Z,6.83
2017-08-16T20:01:12.327Z,10.20
2017-08-16T20:03:38.340Z,8.30
2017-08-16T20:06:04.353Z,11.37
2017-08-16T20:08:30.377Z,5.33
2017-08-16T20:10:56.383Z,8.80
2017-08-16T20:13:22.412Z,8.73
2017-08-16T20:15:48.452Z,11.60
2017-08-16T20:18:14.473Z,12.50
2017-08-16T20:20:40.485Z,7.60
2017-08-16T20:23:06.644Z,15.43
2017-08-16T20:25:32.668Z,9.47
2017-08-16T20:27:58.680Z,11.13
2017-08-16T20:30:31.760Z,11.10
2017-08-16T20:32:57.792Z,12.70
2017-08-16T20:35:23.804Z,8.90
2017-08-16T20:37:49.832Z,10.47
2017-08-16T20:40:15.844Z,11.10
2017-08-16T20:42:42.616Z,11.47
2017-08-16T20:45:08.661Z,9.40
2017-08-16T20:47:34.722Z,10.37
2017-08-16T20:50:00.744Z,10.20
2017-08-16T20:52:26.749Z,14.93
2017-08-16T20:54:52.773Z,11.70
2017-08-16T20:57:18.798Z,13.50
2017-08-16T20:59:51.750Z,13.03
2017-08-16T21:02:17.774Z,17.37
2017-08-16T21:04:43.809Z,16.23
2017-08-16T21:07:09.821Z,10.83
2017-08-16T21:09:35.833Z,14.37
2017-08-16T21:12:01.853Z,15.80
2017-08-16T21:14:28.610Z,12.10
2017-08-16T21:16:54.616Z,13.47
2017-08-16T21:19:20.649Z,11.80
2017-08-16T21:21:46.681Z,13.70
2017-08-16T21:24:13.486Z,14.90
2017-08-16T21:26:39.508Z,12.53
2017-08-16T21:29:05.524Z,16.00
2017-08-16T21:31:31.545Z,13.97
2017-08-16T21:33:58.293Z,14.27
2017-08-16T21:36:24.318Z,12.33
2017-08-16T21:38:50.333Z,17.17
2017-08-16T21:41:16.365Z,17.27
2017-08-16T21:43:42.376Z,19.30
2017-08-16T21:46:08.404Z,14.53
2017-08-16T21:48:34.452Z,15.30
2017-08-16T21:51:00.497Z,15.53
2017-08-16T21:53:26.504Z,15.43
2017-08-16T21:55:52.529Z,13.17
2017-08-16T21:58:18.533Z,14.67
2017-08-16T22:00:44.584Z,17.43
2017-08-16T22:03:10.600Z,17.83
2017-08-16T22:05:36.646Z,17.50
2017-08-16T22:08:02.676Z,18.20
2017-08-16T22:10:28.697Z,19.03
2017-08-16T22:12:55.457Z,17.37
2017-08-16T22:15:21.482Z,13.50
2017-08-16T22:17:47.499Z,17.67
2017-08-16T22:20:13.509Z,14.13
2017-08-16T22:22:39.544Z,14.17
2017-08-16T22:25:06.308Z,14.97
2017-08-16T22:27:32.337Z,17.20
2017-08-16T22:29:58.349Z,18.87
2017-08-16T22:32:24.368Z,17.40
2017-08-16T22:34:50.389Z,14.27
2017-08-16T22:37:16.416Z,17.83
2017-08-16T22:39:42.421Z,17.20
2017-08-16T22:42:08.442Z,18.40
2017-08-16T22:44:34.466Z,17.07
2017-08-16T22:47:00.493Z,21.20
2017-08-16T22:49:26.509Z,20.60
2017-08-16T22:51:52.528Z,15.10
2017-08-16T22:54:18.542Z,14.60
2017-08-16T22:56:44.569Z,28.90
2017-08-16T22:59:10.676Z,13.17
2017-08-16T23:01:36.684Z,15.47
2017-08-16T23:04:02.713Z,15.10
2017-08-16T23:06:29.468Z,16.63
2017-08-16T23:08:55.489Z,28.37
2017-08-16T23:11:21.517Z,12.97
2017-08-16T23:13:47.574Z,12.83
2017-08-16T23:16:13.613Z,13.23
2017-08-16T23:18:39.629Z,20.00
2017-08-16T23:21:05.637Z,11.83
2017-08-16T23:23:31.656Z,19.20
2017-08-16T23:25:57.657Z,12.47
2017-08-16T23:28:23.697Z,13.40
2017-08-16T23:30:49.709Z,17.03
2017-08-16T23:33:16.480Z,15.00
2017-08-16T23:35:42.493Z,12.30
2017-08-16T23:38:08.514Z,15.40
2017-08-16T23:40:34.544Z,23.13
2017-08-16T23:43:00.568Z,12.70
2017-08-16T23:45:26.593Z,14.50
2017-08-16T23:47:53.366Z,13.07
2017-08-16T23:50:19.412Z,13.53
2017-08-16T23:52:45.424Z,11.03
2017-08-16T23:55:11.457Z,15.17
2017-08-16T23:57:37.481Z,12.60
